Flight Track Log - Related Links

Times and Time Zones

All times are in EST time to prevent confusion due to time zone crossing. See the AFL150 flight status page for this flight to view local times or setup timezone preferences in your user account.

Time Position Orientation Groundspeed Altitude Reporting Facility
EST Latitude Longitude Course Direction KTS MPH feet Rate Location/Type
Tue 04:59:00 AM 56.0738 37.1324 307° West  Level Estimated
Tue 05:00:00 AM 56.1417 36.9680 307° West  Level Estimated
Tue 05:01:00 AM 56.2094 36.8031 306° West  Level Estimated
Tue 05:02:00 AM 56.2768 36.6375 306° West  Level Estimated
Tue 05:03:00 AM 56.3440 36.4714 306° West  Level Estimated
Tue 05:04:00 AM 56.4110 36.3046 306° West  Level Estimated
Tue 05:05:00 AM 56.4778 36.1373 306° West  Level Estimated
Tue 05:06:00 AM 56.5444 35.9694 306° West  Level Estimated
Tue 05:07:00 AM 56.6107 35.8009 306° West  Level Estimated
Tue 05:08:00 AM 56.6768 35.6318 305° West  Level Estimated
Tue 05:09:00 AM 56.7427 35.4622 305° West  Level Estimated
Tue 05:10:00 AM 56.8083 35.2919 305° West  Level Estimated
Tue 05:11:00 AM 56.8737 35.1210 305° West  Level Estimated
Tue 05:12:00 AM 56.9389 34.9496 305° West  Level Estimated
Tue 05:13:00 AM 57.0038 34.7775 305° West  Level Estimated
Tue 05:14:00 AM 57.0677 34.6071 305° West  Level Estimated
Tue 05:15:00 AM 57.1313 34.4361 304° West  Level Estimated
Tue 05:16:00 AM 57.1947 34.2645 304° West  Level Estimated
Tue 05:17:00 AM 57.2578 34.0923 304° West  Level Estimated
Tue 05:18:00 AM 57.3208 33.9196 304° West  Level Estimated
Tue 05:19:00 AM 57.3834 33.7462 304° West  Level Estimated
Tue 05:20:00 AM 57.4459 33.5723 304° West  Level Estimated
Tue 05:21:00 AM 57.5081 33.3977 304° West  Level Estimated
Tue 05:22:00 AM 57.5700 33.2226 303° West  Level Estimated
Tue 05:23:00 AM 57.6318 33.0469 303° West  Level Estimated
Tue 05:24:00 AM 57.6932 32.8706 303° West  Level Estimated
Tue 05:25:00 AM 57.7545 32.6936 303° West  Level Estimated
Tue 05:26:00 AM 57.8154 32.5161 303° West  Level Estimated
Tue 05:27:00 AM 57.8762 32.3380 303° West  Level Estimated
Tue 05:28:00 AM 57.9366 32.1593 303° West  Level Estimated
Tue 05:29:00 AM 57.9969 31.9800 302° West  Level Estimated
Tue 05:30:00 AM 58.0569 31.8000 302° West  Level Estimated
Tue 05:31:00 AM 58.1166 31.6195 302° West  Level Estimated
Tue 05:32:00 AM 58.1760 31.4384 302° West  Level Estimated
Tue 05:33:00 AM 58.2352 31.2566 302° West  Level Estimated
Tue 05:34:00 AM 58.2942 31.0743 302° West  Level Estimated
Tue 05:34:22 AM 56.7016 30.7547 302° West 404 465 36,000  Level FlightAware ADS-B
Tue 05:35:22 AM 56.7648 30.5930 306° West 408 470 36,000  Level FlightAware ADS-B
Tue 05:36:22 AM 56.8252 30.4326 305° West 410 472 36,000  Level FlightAware ADS-B
Tue 05:37:22 AM 56.8908 30.2547 304° West 410 472 36,000  Level FlightAware ADS-B
Tue 05:38:22 AM 56.9574 30.0729 304° West 411 473 36,000  Level FlightAware ADS-B
Tue 05:39:22 AM 57.0203 29.9000 304° West 411 473 36,000  Level FlightAware ADS-B
Tue 05:40:22 AM 57.0810 29.7316 304° West 410 472 36,000  Level FlightAware ADS-B
Tue 05:41:22 AM 57.1448 29.5535 304° West 409 471 36,000  Level FlightAware ADS-B
Tue 05:42:22 AM 57.2065 29.3801 303° West 411 473 36,000  Level FlightAware ADS-B
Tue 05:43:22 AM 57.2698 29.2011 303° West 413 475 36,000  Level FlightAware ADS-B
Tue 05:44:21 AM 57.3215 29.0541 303° West 412 474 36,000  Level FlightAware ADS-B
Tue 05:45:22 AM 57.3936 28.8472 303° West 413 475 36,000  Level FlightAware ADS-B
Tue 05:46:23 AM 57.4553 28.6689 303° West 414 476 36,000  Level FlightAware ADS-B
Tue 05:47:23 AM 57.5175 28.4877 303° West 415 478 36,000  Level FlightAware ADS-B
Tue 05:48:21 AM 57.5772 28.3127 303° West 410 472 36,000  Level FlightAware ADS-B
Tue 05:49:22 AM 57.6381 28.1327 302° West 408 470 36,000  Level FlightAware ADS-B
Tue 05:50:22 AM 57.6984 27.9533 302° West 411 473 36,000  Level FlightAware ADS-B
Tue 05:51:22 AM 57.7588 27.7724 302° West 412 474 36,000  Level FlightAware ADS-B
Tue 05:52:22 AM 57.8184 27.5921 302° West 408 470 36,000  Level FlightAware ADS-B
Tue 05:53:22 AM 57.8631 27.3996 294° West 407 468 36,000  Level FlightAware ADS-B
Tue 05:54:22 AM 57.9027 27.2042 291° West 408 470 36,000  Level FlightAware ADS-B
Tue 05:55:22 AM 57.9433 27.0025 291° West 408 470 36,000  Level FlightAware ADS-B
Tue 05:56:22 AM 57.9807 26.8146 291° West 410 472 36,000  Level FlightAware ADS-B
Tue 05:57:22 AM 58.0222 26.6039 290° West 410 472 36,000  Level FlightAware ADS-B
Tue 05:58:22 AM 58.0615 26.4021 290° West 411 473 36,000  Level FlightAware ADS-B
Tue 05:59:22 AM 58.0982 26.2124 290° West 411 473 36,000  Level FlightAware ADS-B
Tue 06:00:21 AM 58.1385 26.0014 290° West 410 472 36,000  Level FlightAware ADS-B
Tue 06:01:22 AM 58.1770 25.7975 290° West 410 472 36,000  Level FlightAware ADS-B
Tue 06:02:22 AM 58.2151 25.5939 290° West 409 471 36,000  Level FlightAware ADS-B
Tue 06:03:22 AM 58.2524 25.3921 289° West 409 471 36,000  Level FlightAware ADS-B
Tue 06:04:22 AM 58.2882 25.1964 289° West 410 472 36,000  Level FlightAware ADS-B
Tue 06:05:21 AM 58.3239 24.9996 289° West 410 472 36,000  Level FlightAware ADS-B
Tue 06:06:22 AM 58.3614 24.7906 289° West 412 474 36,000  Level FlightAware ADS-B
Tue 06:07:17 AM 58.3962 24.5944 289° West 411 473 36,000  Level FlightAware ADS-B
Tue 06:08:20 AM 58.4331 24.3777 288° West 412 474 36,000  Level FlightAware ADS-B
Tue 06:19:46 AM 58.6387 22.9684 294° West 417 480 36,000  Level FlightAware ADS-B
Tue 06:23:33 AM 58.8920 21.1229 295° West 417 480 36,000  Level FlightAware ADS-B
Tue 06:24:09 AM 58.9141 20.9942 288° West 420 483 36,000  Level FlightAware ADS-B
Tue 06:24:54 AM 58.9405 20.8353 288° West 420 483 36,000  Level FlightAware ADS-B
Tue 06:25:38 AM 58.9665 20.6766 288° West 421 484 36,000  Level FlightAware ADS-B
Tue 06:26:14 AM 58.9824 20.5788 288° West 421 484 36,000  Level FlightAware ADS-B
Tue 06:26:54 AM 59.0072 20.4249 287° West 421 484 36,000  Level FlightAware ADS-B
Tue 06:27:11 AM 59.0203 20.3437 287° West 419 482 36,000  Level FlightAware ADS-B
Tue 06:27:41 AM 59.0375 20.2356 287° West 418 481 36,000  Level FlightAware ADS-B
Tue 06:28:14 AM 59.0530 20.1382 287° West 421 484 36,000  Level FlightAware ADS-B
Tue 06:28:53 AM 59.0753 19.9968 287° West 420 483 36,000  Level FlightAware ADS-B
Tue 06:29:10 AM 59.0875 19.9186 287° West 418 481 36,000  Level FlightAware ADS-B
Tue 06:29:54 AM 59.1098 19.7751 287° West 420 483 36,000  Level FlightAware ADS-B
Tue 06:30:34 AM 59.1301 19.6430 287° West 420 483 36,000  Level FlightAware ADS-B
Tue 06:31:14 AM 59.1510 19.5069 287° West 419 482 36,000  Level FlightAware ADS-B
Tue 06:31:54 AM 59.1753 19.3465 287° West 420 483 36,000  Level FlightAware ADS-B
Tue 06:32:33 AM 59.1968 19.2032 286° West 421 484 36,000  Level FlightAware ADS-B
Tue 06:33:14 AM 59.2189 19.0549 286° West 423 487 36,000  Level FlightAware ADS-B
Tue 06:33:47 AM 59.2399 18.9131 286° West 424 488 36,000  Level FlightAware ADS-B
Tue 06:34:35 AM 59.2627 18.7575 286° West 424 488 36,000  Level FlightAware ADS-B
Tue 06:35:15 AM 59.2840 18.6101 286° West 424 488 36,000  Level FlightAware ADS-B
Tue 06:35:55 AM 59.3047 18.4661 286° West 423 487 36,000  Level FlightAware ADS-B
Tue 06:36:35 AM 59.3260 18.3164 286° West 422 486 36,000  Level FlightAware ADS-B
Tue 06:37:15 AM 59.3464 18.1721 286° West 423 487 36,000  Level FlightAware ADS-B
Tue 06:37:55 AM 59.3674 18.0219 285° West 424 488 36,000  Level FlightAware ADS-B
Tue 06:38:35 AM 59.3878 17.8745 285° West 424 488 36,000  Level FlightAware ADS-B
Tue 06:39:15 AM 59.4072 17.7329 285° West 425 489 36,000  Level FlightAware ADS-B
Tue 06:39:53 AM 59.4272 17.5857 285° West 424 488 36,000  Level FlightAware ADS-B
Tue 06:40:35 AM 59.4469 17.4393 285° West 424 488 36,000  Level FlightAware ADS-B
Tue 06:41:13 AM 59.4671 17.2879 285° West 424 488 36,000  Level FlightAware ADS-B
Tue 06:41:52 AM 59.4863 17.1429 285° West 424 488 36,000  Level FlightAware ADS-B
Tue 06:42:12 AM 59.4986 17.0493 285° West 422 486 36,000  Level FlightAware ADS-B
Tue 06:42:54 AM 59.5162 16.9134 284° West 425 489 36,000  Level FlightAware ADS-B
Tue 06:43:27 AM 59.5350 16.7680 284° West 424 488 36,000  Level FlightAware ADS-B
Tue 06:43:54 AM 59.5480 16.6663 284° West 425 489 36,000  Level FlightAware ADS-B
Tue 06:44:10 AM 59.5553 16.6086 284° West 425 489 36,000  Level FlightAware ADS-B
Tue 06:44:55 AM 59.5744 16.4575 284° West 428 493 36,000  Level FlightAware ADS-B
Tue 06:45:25 AM 59.5907 16.3272 284° West 427 491 36,000  Level FlightAware ADS-B
Tue 06:46:04 AM 59.6033 16.2251 284° West 426 490 36,000  Level FlightAware ADS-B
Tue 06:46:36 AM 59.6237 16.0594 284° West 426 490 36,000  Level FlightAware ADS-B
Tue 06:47:06 AM 59.6376 15.9453 284° West 426 490 36,000  Level FlightAware ADS-B
Tue 06:47:46 AM 59.6558 15.7947 284° West 426 490 36,000  Level FlightAware ADS-B
Tue 06:48:17 AM 59.6700 15.6758 283° West 428 493 36,000  Level FlightAware ADS-B
Tue 06:49:11 AM 59.6941 15.4712 283° West 428 493 36,000  Level FlightAware ADS-B
Tue 06:49:42 AM 59.7077 15.3543 283° West 428 493 36,000  Level FlightAware ADS-B
Tue 06:50:28 AM 59.7283 15.1762 283° West 429 494 36,000  Level FlightAware ADS-B
Tue 06:50:58 AM 59.7411 15.0642 283° West 427 491 36,000  Level FlightAware ADS-B
Tue 06:51:29 AM 59.7546 14.9454 283° West 428 493 36,000  Level FlightAware ADS-B
Tue 06:52:08 AM 59.7715 14.7940 283° West 429 494 36,000  Level FlightAware ADS-B
Tue 06:52:40 AM 59.7850 14.6728 282° West 428 493 36,000  Level FlightAware ADS-B
Tue 06:53:25 AM 59.8042 14.4970 282° West 430 495 36,000  Level FlightAware ADS-B
Tue 06:53:58 AM 59.8178 14.3709 282° West 431 496 36,000  Level FlightAware ADS-B
Tue 06:54:57 AM 59.8424 14.1425 282° West 436 502 36,000  Level FlightAware ADS-B
Tue 06:55:42 AM 59.8613 13.9630 282° West 439 505 36,000  Level FlightAware ADS-B
Tue 06:56:12 AM 59.8736 13.8447 282° West 441 507 36,000  Level FlightAware ADS-B
Tue 06:56:43 AM 59.8863 13.7217 282° West 443 510 36,000  Level FlightAware ADS-B
Tue 06:57:42 AM 59.9101 13.4865 282° West 443 510 36,000  Level FlightAware ADS-B
Tue 06:58:13 AM 59.9274 13.3622 286° West 448 516 36,000  Level FlightAware ADS-B
Tue 06:58:56 AM 59.9531 13.1927 287° West 450 518 36,000  Level FlightAware ADS-B
Tue 06:59:55 AM 59.9877 12.9607 287° West 451 519 36,000  Level FlightAware ADS-B
Tue 07:00:25 AM 60.0059 12.8383 287° West 453 521 36,000  Level FlightAware ADS-B
Tue 07:00:55 AM 60.0233 12.7206 287° West 454 522 36,000  Level FlightAware ADS-B
Tue 07:01:54 AM 60.0579 12.4824 286° West 457 526 36,000  Level FlightAware ADS-B
Tue 07:02:24 AM 60.0754 12.3602 286° West 457 526 36,000  Level FlightAware ADS-B
Tue 07:02:54 AM 60.0928 12.2382 286° West 459 528 36,000  Level FlightAware ADS-B
Tue 07:03:28 AM 60.1129 12.0962 286° West 461 531 36,000  Level FlightAware ADS-B
Tue 07:04:01 AM 60.1317 11.9615 286° West 463 533 36,000  Level FlightAware ADS-B
Tue 07:04:31 AM 60.1495 11.8343 286° West 463 533 36,000  Level FlightAware ADS-B
Tue 07:05:01 AM 60.1663 11.7125 286° West 462 532 36,000  Level FlightAware ADS-B
Tue 07:05:52 AM 60.1951 11.5023 285° West 459 528 36,000  Level FlightAware ADS-B
Tue 07:06:23 AM 60.2122 11.3749 285° West 458 527 36,000  Level FlightAware ADS-B
Tue 07:07:04 AM 60.2350 11.2048 285° West 458 527 36,000  Level FlightAware ADS-B
Tue 07:07:36 AM 60.2522 11.0748 285° West 459 528 36,000  Level FlightAware ADS-B
Tue 07:08:21 AM 60.2757 10.8955 285° West 459 528 36,000  Level FlightAware ADS-B
Tue 07:08:52 AM 60.2926 10.7652 285° West 460 529 36,000  Level FlightAware ADS-B
Tue 07:09:35 AM 60.3163 10.5809 285° West 461 531 36,000  Level FlightAware ADS-B
Tue 07:10:07 AM 60.3331 10.4489 284° West 462 532 36,000  Level FlightAware ADS-B
Tue 07:10:37 AM 60.3484 10.3272 284° West 462 532 36,000  Level FlightAware ADS-B
Tue 07:11:09 AM 60.3652 10.1933 284° West 464 534 36,000  Level FlightAware ADS-B
Tue 07:11:39 AM 60.3808 10.0672 284° West 465 535 36,000  Level FlightAware ADS-B
Tue 07:12:35 AM 60.4095 9.8326 284° West 465 535 36,000  Level FlightAware ADS-B
Tue 07:14:38 AM 60.4712 9.3149 284° West 459 528 36,000  Level FlightAware ADS-B
Tue 07:15:48 AM 60.5051 9.0223 283° West 458 527 36,000  Level FlightAware ADS-B
Tue 07:18:31 AM 60.5824 8.3310 283° West 462 532 36,000  Level FlightAware ADS-B
Tue 07:21:36 AM 60.6633 7.5655 282° West 471 542 36,000  Level FlightAware ADS-B
Tue 07:22:17 AM 60.6812 7.3897 282° West 469 540 36,000  Level FlightAware ADS-B
Tue 07:22:57 AM 60.6986 7.2184 282° West 464 534 36,000  Level FlightAware ADS-B
Tue 07:23:32 AM 60.7136 7.0667 281° West 464 534 36,000  Level FlightAware ADS-B
Tue 07:24:16 AM 60.7317 6.8814 281° West 467 537 36,000  Level FlightAware ADS-B
Tue 07:24:56 AM 60.7484 6.7076 281° West 461 531 36,000  Level FlightAware ADS-B
Tue 07:25:35 AM 60.7644 6.5391 281° West 461 531 36,000  Level FlightAware ADS-B
Tue 07:26:17 AM 60.7810 6.3623 281° West 461 531 36,000  Level FlightAware ADS-B
Tue 07:26:52 AM 60.7949 6.2114 281° West 458 527 36,000  Level FlightAware ADS-B
Tue 07:27:35 AM 60.8116 6.0281 281° West 458 527 36,000  Level FlightAware ADS-B
Tue 07:28:17 AM 60.8275 5.8505 281° West 460 529 36,000  Level FlightAware ADS-B
Tue 07:28:57 AM 60.8425 5.6806 280° West 461 531 36,000 Level FlightAware ADS-B
Tue 07:31:00 AM 60.8820 5.2137 280° West  Level Estimated
Tue 07:32:00 AM 60.9007 4.9854 280° West  Level Estimated
Tue 07:33:00 AM 60.9191 4.7570 279° West  Level Estimated
Tue 07:34:00 AM 60.9370 4.5282 279° West  Level Estimated
Tue 07:35:00 AM 60.9546 4.2993 279° West  Level Estimated
Tue 07:36:00 AM 60.9717 4.0700 279° West  Level Estimated
Tue 07:37:00 AM 60.9885 3.8405 279° West  Level Estimated
Tue 07:38:00 AM 61.0049 3.6108 278° West  Level Estimated
Tue 07:39:00 AM 61.0209 3.3809 278° West  Level Estimated
Tue 07:40:00 AM 61.0365 3.1507 278° West  Level Estimated
Tue 07:41:00 AM 61.0517 2.9203 278° West  Level Estimated
Tue 07:42:00 AM 61.0665 2.6896 278° West  Level Estimated
Tue 07:43:00 AM 61.0809 2.4588 277° West  Level Estimated
Tue 07:44:00 AM 61.0949 2.2277 277° West  Level Estimated
Tue 07:45:00 AM 61.1086 1.9965 277° West  Level Estimated
Tue 07:46:00 AM 61.1218 1.7650 277° West  Level Estimated
Tue 07:47:00 AM 61.1347 1.5334 277° West  Level Estimated
Tue 07:48:00 AM 61.1471 1.3016 276° West  Level Estimated
Tue 07:49:00 AM 61.1591 1.0696 276° West  Level Estimated
Tue 07:50:00 AM 61.1708 0.8374 276° West  Level Estimated
Tue 07:51:00 AM 61.1820 0.6051 276° West  Level Estimated
Tue 07:52:00 AM 61.1929 0.3725 276° West  Level Estimated
Tue 07:53:00 AM 61.2034 0.1399 275° West  Level Estimated
Tue 07:54:00 AM 61.2134 -0.0930 275° West  Level Estimated
Tue 07:55:00 AM 61.2231 -0.3259 275° West  Level Estimated
Tue 07:56:00 AM 61.2323 -0.5590 275° West  Level Estimated
Tue 07:57:00 AM 61.2412 -0.7922 275° West  Level Estimated
Tue 07:58:00 AM 61.2497 -1.0256 274° West  Level Estimated
Tue 07:59:00 AM 61.2577 -1.2591 274° West  Level Estimated
Tue 08:00:00 AM 61.2654 -1.4927 274° West  Level Estimated
Tue 08:01:00 AM 61.2726 -1.7264 274° West  Level Estimated
Tue 08:02:00 AM 61.2795 -1.9603 274° West  Level Estimated
Tue 08:03:00 AM 61.2859 -2.1942 273° West  Level Estimated
Tue 08:04:00 AM 61.2920 -2.4282 273° West  Level Estimated
Tue 08:05:00 AM 61.2976 -2.6623 273° West  Level Estimated
Tue 08:06:00 AM 61.3029 -2.8965 273° West  Level Estimated
Tue 08:07:00 AM 61.3077 -3.1307 273° West  Level Estimated
Tue 08:08:00 AM 61.3121 -3.3651 272° West  Level Estimated
Tue 08:09:00 AM 61.3162 -3.5995 272° West  Level Estimated
Tue 08:10:00 AM 61.3198 -3.8339 272° West  Level Estimated
Tue 08:11:00 AM 61.3230 -4.0684 272° West  Level Estimated
Tue 08:12:00 AM 61.3258 -4.3029 272° West  Level Estimated
Tue 08:13:00 AM 61.3283 -4.5375 271° West  Level Estimated
Tue 08:14:00 AM 61.3303 -4.7721 271° West  Level Estimated
Tue 08:15:00 AM 61.3319 -5.0068 271° West  Level Estimated
Tue 08:16:00 AM 61.3331 -5.2414 271° West  Level Estimated
Tue 08:17:00 AM 61.3339 -5.4761 271° West  Level Estimated
Tue 08:18:00 AM 61.3343 -5.7108 270° West  Level Estimated
Tue 08:19:00 AM 61.3343 -5.9455 270° West  Level Estimated
Tue 08:20:00 AM 61.3338 -6.1802 270° West  Level Estimated
Tue 08:21:00 AM 61.3330 -6.4149 270° West  Level Estimated
Tue 08:22:00 AM 61.3318 -6.6495 269° West  Level Estimated
Tue 08:23:00 AM 61.3302 -6.8842 269° West  Level Estimated
Tue 08:24:00 AM 61.3281 -7.1188 269° West  Level Estimated
Tue 08:25:00 AM 61.3257 -7.3534 269° West  Level Estimated
Tue 08:26:00 AM 61.3228 -7.5879 269° West  Level Estimated
Tue 08:27:00 AM 61.3196 -7.8224 268° West  Level Estimated
Tue 08:28:00 AM 61.3159 -8.0568 268° West  Level Estimated
Tue 08:29:00 AM 61.3119 -8.2912 268° West  Level Estimated
Tue 08:30:00 AM 61.3074 -8.5255 268° West  Level Estimated
Tue 08:31:00 AM 61.3026 -8.7598 268° West  Level Estimated
Tue 08:32:00 AM 61.2973 -8.9940 267° West  Level Estimated
Tue 08:33:00 AM 61.2916 -9.2281 267° West  Level Estimated
Tue 08:34:00 AM 61.2855 -9.4621 267° West  Level Estimated
Tue 08:35:00 AM 61.2791 -9.6960 267° West  Level Estimated
Tue 08:36:00 AM 61.2722 -9.9298 267° West  Level Estimated
Tue 08:37:00 AM 61.2649 -10.1635 266° West  Level Estimated
Tue 08:38:00 AM 61.2572 -10.3971 266° West  Level Estimated
Tue 08:39:00 AM 61.2491 -10.6306 266° West  Level Estimated
Tue 08:40:00 AM 61.2407 -10.8640 266° West  Level Estimated
Tue 08:41:00 AM 61.2318 -11.0972 266° West  Level Estimated
Tue 08:42:00 AM 61.2225 -11.3303 265° West  Level Estimated
Tue 08:43:00 AM 61.2128 -11.5632 265° West  Level Estimated
Tue 08:44:00 AM 61.2027 -11.7960 265° West  Level Estimated
Tue 08:45:00 AM 61.1923 -12.0287 265° West  Level Estimated
Tue 08:46:00 AM 61.1814 -12.2612 265° West  Level Estimated
Tue 08:47:00 AM 61.1701 -12.4935 264° West  Level Estimated
Tue 08:48:00 AM 61.1584 -12.7257 264° West  Level Estimated
Tue 08:49:00 AM 61.1464 -12.9577 264° West  Level Estimated
Tue 08:50:00 AM 61.1339 -13.1895 264° West  Level Estimated
Tue 08:51:00 AM 61.1210 -13.4211 264° West  Level Estimated
Tue 08:52:00 AM 61.1077 -13.6526 263° West  Level Estimated
Tue 08:53:00 AM 61.0941 -13.8838 263° West  Level Estimated
Tue 08:54:00 AM 61.0800 -14.1148 263° West  Level Estimated
Tue 08:55:00 AM 61.0656 -14.3457 263° West  Level Estimated
Tue 08:56:00 AM 61.0508 -14.5763 263° West  Level Estimated
Tue 08:57:00 AM 61.0355 -14.8067 262° West  Level Estimated
Tue 08:58:00 AM 61.0199 -15.0368 262° West  Level Estimated
Tue 08:59:00 AM 61.0039 -15.2668 262° West  Level Estimated
Tue 09:00:00 AM 60.9875 -15.4965 262° West  Level Estimated
Tue 09:01:00 AM 60.9707 -15.7260 262° West  Level Estimated
Tue 09:02:00 AM 60.9535 -15.9552 261° West  Level Estimated
Tue 09:03:00 AM 60.9359 -16.1842 261° West  Level Estimated
Tue 09:04:00 AM 60.9179 -16.4129 261° West  Level Estimated
Tue 09:05:00 AM 60.8996 -16.6413 261° West  Level Estimated
Tue 09:06:00 AM 60.8808 -16.8695 261° West  Level Estimated
Tue 09:07:00 AM 60.8617 -17.0974 260° West  Level Estimated
Tue 09:08:00 AM 60.8422 -17.3251 260° West  Level Estimated
Tue 09:09:00 AM 60.8223 -17.5524 260° West  Level Estimated
Tue 09:10:00 AM 60.8020 -17.7795 260° West  Level Estimated
Tue 09:11:00 AM 60.7814 -18.0063 260° West  Level Estimated
Tue 09:12:00 AM 60.7603 -18.2328 259° West  Level Estimated
Tue 09:13:00 AM 60.7389 -18.4590 259° West  Level Estimated
Tue 09:14:00 AM 60.7171 -18.6849 259° West  Level Estimated
Tue 09:15:00 AM 60.6949 -18.9104 259° West  Level Estimated
Tue 09:16:00 AM 60.6724 -19.1357 259° West  Level Estimated
Tue 09:17:00 AM 60.6494 -19.3607 258° West  Level Estimated
Tue 09:18:00 AM 60.6261 -19.5853 258° West  Level Estimated
Tue 09:19:00 AM 60.6024 -19.8096 258° West  Level Estimated
Tue 09:20:00 AM 60.5784 -20.0336 258° West  Level Estimated
Tue 09:21:00 AM 60.5539 -20.2572 258° West  Level Estimated
Tue 09:22:00 AM 60.5291 -20.4805 257° West  Level Estimated
Tue 09:23:00 AM 60.5039 -20.7034 257° West  Level Estimated
Tue 09:24:00 AM 60.4784 -20.9260 257° West  Level Estimated
Tue 09:25:00 AM 60.4524 -21.1483 257° West  Level Estimated
Tue 09:26:00 AM 60.4261 -21.3702 257° West  Level Estimated
Tue 09:27:00 AM 60.3995 -21.5917 256° West  Level Estimated
Tue 09:28:00 AM 60.3724 -21.8129 256° West  Level Estimated
Tue 09:29:00 AM 60.3450 -22.0336 256° West  Level Estimated
Tue 09:30:00 AM 60.3173 -22.2541 256° West  Level Estimated
Tue 09:31:00 AM 60.2892 -22.4741 256° West  Level Estimated
Tue 09:32:00 AM 60.2607 -22.6938 255° West  Level Estimated
Tue 09:33:00 AM 60.2318 -22.9130 255° West  Level Estimated
Tue 09:34:00 AM 60.2026 -23.1319 255° West  Level Estimated
Tue 09:35:00 AM 60.1730 -23.3504 255° West  Level Estimated
Tue 09:36:00 AM 60.1431 -23.5685 255° West  Level Estimated
Tue 09:37:00 AM 60.1128 -23.7862 254° West  Level Estimated
Tue 09:38:00 AM 60.0822 -24.0035 254° West  Level Estimated
Tue 09:39:00 AM 60.0512 -24.2204 254° West  Level Estimated
Tue 09:40:00 AM 60.0198 -24.4369 254° West  Level Estimated
Tue 09:41:00 AM 59.9881 -24.6530 254° West  Level Estimated
Tue 09:42:00 AM 59.9560 -24.8686 254° West  Level Estimated
Tue 09:43:00 AM 59.9236 -25.0839 253° West  Level Estimated
Tue 09:44:00 AM 59.8909 -25.2987 253° West  Level Estimated
Tue 09:45:00 AM 59.8577 -25.5131 253° West  Level Estimated
Tue 09:46:00 AM 59.8243 -25.7270 253° West  Level Estimated
Tue 09:47:00 AM 59.7905 -25.9406 253° West  Level Estimated
Tue 09:48:00 AM 59.7563 -26.1537 252° West  Level Estimated
Tue 09:49:00 AM 59.7218 -26.3663 252° West  Level Estimated
Tue 09:50:00 AM 59.6870 -26.5785 252° West  Level Estimated
Tue 09:51:00 AM 59.6518 -26.7903 252° West  Level Estimated
Tue 09:52:00 AM 59.6163 -27.0016 252° West  Level Estimated
Tue 09:53:00 AM 59.5804 -27.2125 252° West  Level Estimated
Tue 09:54:00 AM 59.5442 -27.4229 251° West  Level Estimated
Tue 09:55:00 AM 59.5077 -27.6329 251° West  Level Estimated
Tue 09:56:00 AM 59.4708 -27.8424 251° West  Level Estimated
Tue 09:57:00 AM 59.4336 -28.0515 251° West  Level Estimated
Tue 09:58:00 AM 59.3961 -28.2601 251° West  Level Estimated
Tue 09:59:00 AM 59.3582 -28.4682 250° West  Level Estimated
Tue 10:00:00 AM 59.3200 -28.6759 250° West  Level Estimated
Tue 10:01:00 AM 59.2815 -28.8831 250° West  Level Estimated
Tue 10:02:00 AM 59.2426 -29.0898 250° West  Level Estimated
Tue 10:03:00 AM 59.2034 -29.2961 250° West  Level Estimated
Tue 10:04:00 AM 59.1639 -29.5019 250° West  Level Estimated
Tue 10:05:00 AM 59.1241 -29.7072 249° West  Level Estimated
Tue 10:06:00 AM 59.0839 -29.9120 249° West  Level Estimated
Tue 10:07:00 AM 59.0434 -30.1163 249° West  Level Estimated
Tue 10:08:00 AM 59.0026 -30.3202 249° West  Level Estimated
Tue 10:09:00 AM 58.9602 -30.5299 249° West  Level Estimated
Tue 10:10:00 AM 58.9175 -30.7390 248° West  Level Estimated
Tue 10:11:00 AM 58.8744 -30.9477 248° West  Level Estimated
Tue 10:12:00 AM 58.8310 -31.1558 248° West  Level Estimated
Tue 10:13:00 AM 58.7873 -31.3634 248° West  Level Estimated
Tue 10:14:00 AM 58.7432 -31.5704 248° West  Level Estimated
Tue 10:15:00 AM 58.6988 -31.7770 248° West  Level Estimated
Tue 10:16:00 AM 58.6540 -31.9830 247° West  Level Estimated
Tue 10:17:00 AM 58.6090 -32.1885 247° West  Level Estimated
Tue 10:18:00 AM 58.5635 -32.3934 247° West  Level Estimated
Tue 10:19:00 AM 58.5178 -32.5978 247° West  Level Estimated
Tue 10:20:00 AM 58.4718 -32.8017 247° West  Level Estimated
Tue 10:21:00 AM 58.4254 -33.0051 247° West  Level Estimated
Tue 10:22:00 AM 58.3787 -33.2079 246° West  Level Estimated
Tue 10:23:00 AM 58.3317 -33.4102 246° West  Level Estimated
Tue 10:24:00 AM 58.2844 -33.6119 246° West  Level Estimated
Tue 10:25:00 AM 58.2367 -33.8131 246° West  Level Estimated
Tue 10:26:00 AM 58.1888 -34.0138 246° West  Level Estimated
Tue 10:27:00 AM 58.1405 -34.2139 246° West  Level Estimated
Tue 10:28:00 AM 58.0919 -34.4135 245° Southwest  Level Estimated
Tue 10:29:00 AM 58.0430 -34.6125 245° Southwest  Level Estimated
Tue 10:30:00 AM 57.9938 -34.8110 245° Southwest  Level Estimated
Tue 10:31:00 AM 57.9443 -35.0089 245° Southwest  Level Estimated
Tue 10:32:00 AM 57.8945 -35.2063 245° Southwest  Level Estimated
Tue 10:33:00 AM 57.8443 -35.4031 244° Southwest  Level Estimated
Tue 10:34:00 AM 57.7939 -35.5994 244° Southwest  Level Estimated
Tue 10:35:00 AM 57.7432 -35.7952 244° Southwest  Level Estimated
Tue 10:36:00 AM 57.6922 -35.9903 244° Southwest  Level Estimated
Tue 10:37:00 AM 57.6408 -36.1850 244° Southwest  Level Estimated
Tue 10:38:00 AM 57.5892 -36.3791 244° Southwest  Level Estimated
Tue 10:39:00 AM 57.5373 -36.5726 244° Southwest  Level Estimated
Tue 10:40:00 AM 57.4851 -36.7656 243° Southwest  Level Estimated
Tue 10:41:00 AM 57.4325 -36.9580 243° Southwest  Level Estimated
Tue 10:42:00 AM 57.3797 -37.1499 243° Southwest  Level Estimated
Tue 10:43:00 AM 57.3266 -37.3412 243° Southwest  Level Estimated
Tue 10:44:00 AM 57.2732 -37.5320 243° Southwest  Level Estimated
Tue 10:45:00 AM 57.2196 -37.7222 243° Southwest  Level Estimated
Tue 10:46:00 AM 57.1656 -37.9119 242° Southwest  Level Estimated
Tue 10:47:00 AM 57.1113 -38.1010 242° Southwest  Level Estimated
Tue 10:48:00 AM 57.0568 -38.2896 242° Southwest  Level Estimated
Tue 10:49:00 AM 57.0020 -38.4776 242° Southwest  Level Estimated
Tue 10:50:00 AM 56.9469 -38.6650 242° Southwest  Level Estimated
Tue 10:51:00 AM 56.8915 -38.8519 242° Southwest  Level Estimated
Tue 10:52:00 AM 56.8359 -39.0382 241° Southwest  Level Estimated
Tue 10:53:00 AM 56.7799 -39.2240 241° Southwest  Level Estimated
Tue 10:54:00 AM 56.7237 -39.4092 241° Southwest  Level Estimated
Tue 10:55:00 AM 56.6672 -39.5939 241° Southwest  Level Estimated
Tue 10:56:00 AM 56.6105 -39.7780 241° Southwest  Level Estimated
Tue 10:57:00 AM 56.5535 -39.9616 241° Southwest  Level Estimated
Tue 10:58:00 AM 56.4962 -40.1446 240° Southwest  Level Estimated
Tue 10:59:00 AM 56.4386 -40.3271 240° Southwest  Level Estimated
Tue 10:59:59 AM 63.1667 -54.8167 239° Southwest 570 656 37,000  Level Gander Center
Tue 11:00:00 AM 56.3808 -40.5090 240° Southwest  Level Estimated
Tue 11:00:59 AM 63.1167 -55.0500 245° Southwest 470 541 37,000  Level Gander Center
Tue 11:01:00 AM 56.3227 -40.6903 240° Southwest  Level Estimated
Tue 11:01:59 AM 63.0667 -55.3167 248° West 470 541 37,000  Level Gander Center
Tue 11:02:00 AM 56.2643 -40.8711 240° Southwest  Level Estimated
Tue 11:02:59 AM 63.0167 -55.5833 248° West 470 541 37,000  Level Gander Center
Tue 11:03:00 AM 56.2027 -41.0607 240° Southwest  Level Estimated
Tue 11:03:59 AM 62.9667 -55.8167 245° Southwest 460 529 37,000  Level Gander Center
Tue 11:04:00 AM 56.1407 -41.2497 240° Southwest  Level Estimated
Tue 11:04:59 AM 62.9167 -56.0833 248° West 460 529 37,000  Level Gander Center
Tue 11:05:00 AM 56.0785 -41.4380 239° Southwest  Level Estimated
Tue 11:05:59 AM 62.8667 -56.3333 246° West 450 518 37,000  Level Gander Center
Tue 11:06:59 AM 62.8000 -56.6000 241° Southwest 460 529 37,000 350 Level Gander Center
Tue 11:07:59 AM 62.7333 -56.8333 238° Southwest 460 529 37,700 500 Climbing Gander Center
Tue 11:08:59 AM 62.6667 -57.0667 238° Southwest 460 529 38,000 150 Climbing Gander Center
Tue 11:09:59 AM 62.6000 -57.2833 236° Southwest 460 529 38,000  Level Gander Center
Tue 11:10:59 AM 62.5167 -57.5167 232° Southwest 440 506 38,000  Level Gander Center
Tue 11:11:59 AM 62.4500 -57.7333 236° Southwest 470 541 38,000  Level Gander Center
Tue 11:12:59 AM 62.3833 -57.9500 236° Southwest 470 541 38,000  Level Gander Center
Tue 11:13:59 AM 62.3167 -58.1833 238° Southwest 460 529 38,000  Level Gander Center
Tue 11:14:59 AM 62.2333 -58.4000 231° Southwest 450 518 38,000  Level Gander Center
Tue 11:16:28 AM 62.1333 -58.6500 230° Southwest 460 529 38,000  Level Montreal Center
Tue 11:16:59 AM 62.0833 -58.8333 240° Southwest 460 529 38,000  Level Gander Center
Tue 11:17:59 AM 62.0167 -59.0500 237° Southwest 460 529 38,000  Level Gander Center
Tue 11:18:59 AM 61.9500 -59.2667 237° Southwest 460 529 38,000  Level Gander Center
Tue 11:19:59 AM 61.8833 -59.4833 237° Southwest 450 518 38,000  Level Gander Center
Tue 11:20:59 AM 61.7833 -59.7000 226° Southwest 460 529 38,000  Level Gander Center
Tue 11:21:59 AM 61.7000 -59.9167 231° Southwest 460 529 38,000  Level Gander Center
Tue 11:22:59 AM 61.6333 -60.1333 237° Southwest 450 518 38,000  Level Gander Center
Tue 11:23:59 AM 61.5667 -60.3333 235° Southwest 440 506 38,000  Level Gander Center
Tue 11:25:59 AM 61.4167 -60.7667 234° Southwest 460 529 38,000  Level Gander Center
Tue 11:26:59 AM 61.3500 -60.9667 235° Southwest 450 518 38,000  Level Gander Center
Tue 11:27:59 AM 61.2667 -61.2167 235° Southwest 480 552 38,000  Level Gander Center
Tue 11:28:59 AM 61.1833 -61.4167 229° Southwest 480 552 38,000  Level Gander Center
Tue 11:29:59 AM 61.1167 -61.5833 230° Southwest 460 529 38,000  Level Gander Center
Tue 11:30:59 AM 61.0333 -61.8000 232° Southwest 450 518 38,000  Level Gander Center
Tue 11:31:59 AM 60.9500 -62.0000 229° Southwest 450 518 38,000  Level Gander Center
Tue 11:32:59 AM 60.8667 -62.2000 229° Southwest 460 529 38,000  Level Gander Center
Tue 11:33:59 AM 60.8000 -62.4000 236° Southwest 460 529 38,000  Level Gander Center
Tue 11:34:59 AM 60.7167 -62.6333 234° Southwest 460 529 38,000  Level Gander Center
Tue 11:35:59 AM 60.6333 -62.8333 230° Southwest 460 529 38,000  Level Gander Center
Tue 11:36:59 AM 60.5500 -63.0333 230° Southwest 450 518 38,000  Level Gander Center
Tue 11:37:59 AM 60.4667 -63.2333 230° Southwest 450 518 38,000  Level Gander Center
Tue 11:38:59 AM 60.4000 -63.4333 236° Southwest 450 518 38,000  Level Gander Center
Tue 11:39:59 AM 60.3167 -63.6333 230° Southwest 450 518 38,000  Level Gander Center
Tue 11:40:59 AM 60.2333 -63.8333 230° Southwest 450 518 38,000  Level Gander Center
Tue 11:41:59 AM 60.1500 -64.0167 228° Southwest 450 518 38,000  Level Gander Center
Tue 11:42:59 AM 60.0667 -64.2167 230° Southwest 450 518 38,000  Level Gander Center
Tue 11:43:59 AM 59.9833 -64.4000 228° Southwest 450 518 38,000  Level Gander Center
Tue 11:44:59 AM 59.9167 -64.6000 236° Southwest 450 518 38,000  Level Gander Center
Tue 11:45:59 AM 59.8167 -64.7500 217° Southwest 450 518 38,000  Level Gander Center
Tue 11:46:59 AM 59.7500 -64.9500 237° Southwest 450 518 38,000  Level Gander Center
Tue 11:47:59 AM 59.6667 -65.1333 228° Southwest 460 529 38,000  Level Gander Center
Tue 11:48:59 AM 59.5833 -65.3333 231° Southwest 460 529 38,000  Level Gander Center
Tue 11:49:59 AM 59.5000 -65.5167 228° Southwest 460 529 38,000  Level Gander Center
Tue 11:50:59 AM 59.4167 -65.7333 233° Southwest 450 518 38,000  Level Gander Center
Tue 11:51:59 AM 59.3167 -65.9167 223° Southwest 450 518 38,000  Level Gander Center
Tue 11:52:59 AM 59.2333 -66.0667 223° Southwest 450 518 38,000  Level Gander Center
Tue 11:53:59 AM 59.1667 -66.2500 235° Southwest 450 518 38,000  Level Gander Center
Tue 11:54:59 AM 59.0667 -66.4333 223° Southwest 450 518 38,000  Level Gander Center
Tue 11:55:59 AM 59.0000 -66.6167 235° Southwest 450 518 38,000  Level Gander Center
Tue 11:56:59 AM 58.9000 -66.8000 223° Southwest 450 518 38,000  Level Gander Center
Tue 11:57:59 AM 58.8333 -66.9833 235° Southwest 450 518 38,000  Level Gander Center
Tue 11:58:59 AM 58.7333 -67.1667 224° Southwest 450 518 38,000  Level Gander Center
Tue 11:59:59 AM 58.6667 -67.3167 230° Southwest 450 518 38,000  Level Gander Center
Tue 12:00:59 PM 58.5833 -67.4833 226° Southwest 450 518 38,000  Level Gander Center
Tue 12:01:59 PM 58.4833 -67.6667 224° Southwest 440 506 38,000  Level Gander Center
Tue 12:02:59 PM 58.4167 -67.8333 233° Southwest 440 506 38,000  Level Gander Center
Tue 12:03:59 PM 58.3167 -68.0167 224° Southwest 440 506 38,000  Level Gander Center
Tue 12:04:59 PM 58.2167 -68.1833 221° Southwest 450 518 38,000  Level Gander Center
Tue 12:05:59 PM 58.1500 -68.3667 235° Southwest 460 529 38,000  Level Gander Center
Tue 12:06:59 PM 58.0667 -68.4833 217° Southwest 390 449 38,000  Level Gander Center
Tue 12:07:59 PM 57.9667 -68.6167 215° Southwest 450 518 38,000  Level Gander Center
Tue 12:08:59 PM 57.8500 -68.7833 217° Southwest 450 518 38,000  Level Gander Center
Tue 12:09:59 PM 57.7500 -68.9167 215° Southwest 450 518 38,000  Level Gander Center
Tue 12:10:59 PM 57.6500 -69.0500 216° Southwest 450 518 38,000  Level Gander Center
Tue 12:11:59 PM 57.5500 -69.1833 216° Southwest 450 518 38,000  Level Gander Center
Tue 12:12:59 PM 57.4500 -69.3167 216° Southwest 450 518 38,000  Level Gander Center
Tue 12:13:59 PM 57.3500 -69.4500 216° Southwest 450 518 38,000  Level Gander Center
Tue 12:14:59 PM 57.2500 -69.5833 216° Southwest 450 518 38,000  Level Gander Center
Tue 12:15:59 PM 57.1667 -69.7333 224° Southwest 440 506 38,000  Level Gander Center
Tue 12:16:59 PM 57.0500 -69.8500 209° Southwest 440 506 38,000  Level Gander Center
Tue 12:17:59 PM 56.9667 -69.9833 221° Southwest 440 506 38,000  Level Gander Center
Tue 12:18:59 PM 56.8500 -70.1167 212° Southwest 440 506 38,000  Level Gander Center
Tue 12:19:59 PM 56.7667 -70.2167 213° Southwest 440 506 38,000  Level Gander Center
Tue 12:20:59 PM 56.6500 -70.3500 212° Southwest 440 506 38,000  Level Gander Center
Tue 12:21:59 PM 56.5333 -70.5000 215° Southwest 440 506 38,000  Level Gander Center
Tue 12:22:59 PM 56.4500 -70.6000 214° Southwest 440 506 38,000  Level Gander Center
Tue 12:23:59 PM 56.3500 -70.7333 216° Southwest 440 506 38,000  Level Gander Center
Tue 12:24:59 PM 56.2500 -70.8500 213° Southwest 440 506 38,000  Level Gander Center
Tue 12:25:59 PM 56.1500 -70.9833 217° Southwest 440 506 38,000  Level Gander Center
Tue 12:26:59 PM 56.0333 -71.1000 209° Southwest 440 506 38,000  Level Gander Center
Tue 12:27:59 PM 55.9500 -71.2333 222° Southwest 440 506 38,000  Level Gander Center
Tue 12:28:59 PM 55.8333 -71.3500 209° Southwest 440 506 38,000  Level Gander Center
Tue 12:29:59 PM 55.7500 -71.4500 214° Southwest 430 495 38,000  Level Gander Center
Tue 12:30:59 PM 55.6333 -71.5667 209° Southwest 440 506 38,000  Level Gander Center
Tue 12:31:59 PM 55.5333 -71.7000 217° Southwest 440 506 38,000  Level Gander Center
Tue 12:32:59 PM 55.4500 -71.8167 218° Southwest 430 495 38,000  Level Gander Center
Tue 12:33:59 PM 55.3333 -71.9333 210° Southwest 440 506 38,000  Level Gander Center
Tue 12:34:59 PM 55.2333 -72.0333 210° Southwest 430 495 38,000  Level Gander Center
Tue 12:35:59 PM 55.1500 -72.1500 219° Southwest 430 495 38,000  Level Gander Center
Tue 12:36:59 PM 55.0500 -72.2833 217° Southwest 430 495 38,000  Level Gander Center
Tue 12:37:59 PM 54.9333 -72.4000 210° Southwest 420 483 38,000  Level Gander Center
Tue 12:38:59 PM 54.8500 -72.5167 219° Southwest 430 495 38,000  Level Gander Center
Tue 12:39:59 PM 54.7333 -72.6000 202° Southwest 420 483 38,000  Level Gander Center
Tue 12:40:59 PM 54.6333 -72.7167 214° Southwest 420 483 38,000  Level Gander Center
Tue 12:41:59 PM 54.5500 -72.8333 219° Southwest 430 495 38,000  Level Gander Center
Tue 12:42:59 PM 54.4500 -72.9667 218° Southwest 430 495 38,000  Level Gander Center
Tue 12:43:59 PM 54.3333 -73.0500 203° Southwest 430 495 38,000  Level Gander Center
Tue 12:44:59 PM 54.2500 -73.1667 219° Southwest 430 495 38,000  Level Gander Center
Tue 12:45:59 PM 54.1500 -73.2833 214° Southwest 420 483 38,000  Level Gander Center
Tue 12:46:59 PM 54.0500 -73.3667 206° Southwest 420 483 38,000  Level Gander Center
Tue 12:47:59 PM 53.9500 -73.4833 214° Southwest 420 483 38,000  Level Gander Center
Tue 12:48:59 PM 53.8500 -73.6000 215° Southwest 420 483 38,000  Level Gander Center
Tue 12:49:59 PM 53.7500 -73.6833 206° Southwest 420 483 38,000  Level Gander Center
Tue 12:50:59 PM 53.6500 -73.8000 215° Southwest 420 483 38,000  Level Gander Center
Tue 12:51:59 PM 53.5500 -73.8667 202° Southwest 420 483 38,000  Level Gander Center
Tue 12:52:59 PM 53.4333 -73.9500 203° Southwest 420 483 38,000  Level Gander Center
Tue 12:53:59 PM 53.3333 -74.0667 215° Southwest 420 483 38,000  Level Gander Center
Tue 12:54:59 PM 53.2333 -74.1500 207° Southwest 420 483 38,000  Level Gander Center
Tue 12:56:18 PM 53.0833 -74.2000 191° South 410 472 38,000  Level Montreal Center
Tue 12:57:18 PM 52.9833 -74.2833 207° Southwest 410 472 38,000  Level Montreal Center
Tue 12:58:18 PM 52.8833 -74.3667 207° Southwest 410 472 38,000  Level Montreal Center
Tue 12:59:18 PM 52.8000 -74.4667 216° Southwest 410 472 38,000  Level Montreal Center
Tue 01:00:18 PM 52.7000 -74.5500 207° Southwest 410 472 38,000  Level Montreal Center
Tue 01:01:18 PM 52.6000 -74.6333 207° Southwest 410 472 38,000  Level Montreal Center
Tue 01:02:18 PM 52.4833 -74.7167 204° Southwest 410 472 38,000  Level Montreal Center
Tue 01:03:18 PM 52.3667 -74.8000 204° Southwest 410 472 38,000  Level Montreal Center
Tue 01:04:18 PM 52.2667 -74.8667 202° Southwest 400 460 38,000  Level Montreal Center
Tue 01:05:18 PM 52.1667 -74.9500 207° Southwest 410 472 38,000  Level Montreal Center
Tue 01:06:18 PM 52.0500 -75.0333 204° Southwest 400 460 38,000  Level Montreal Center
Tue 01:07:18 PM 51.9500 -75.1167 207° Southwest 410 472 38,000  Level Montreal Center
Tue 01:08:18 PM 51.8500 -75.2000 207° Southwest 410 472 38,000  Level Montreal Center
Tue 01:09:18 PM 51.7500 -75.2833 207° Southwest 410 472 38,000  Level Montreal Center
Tue 01:10:18 PM 51.6500 -75.3667 207° Southwest 410 472 38,000  Level Montreal Center
Tue 01:11:18 PM 51.5500 -75.4167 197° South 410 472 38,000  Level Montreal Center
Tue 01:12:18 PM 51.4500 -75.5000 207° Southwest 410 472 38,000  Level Montreal Center
Tue 01:13:18 PM 51.3333 -75.5833 204° Southwest 410 472 38,000  Level Montreal Center
Tue 01:14:18 PM 51.2333 -75.6667 208° Southwest 410 472 38,000  Level Montreal Center
Tue 01:15:18 PM 51.1333 -75.7500 208° Southwest 410 472 38,000  Level Montreal Center
Tue 01:16:18 PM 51.0333 -75.8333 208° Southwest 410 472 38,000  Level Montreal Center
Tue 01:17:18 PM 50.9333 -75.9167 208° Southwest 410 472 38,000  Level Montreal Center
Tue 01:18:18 PM 50.8333 -76.0000 208° Southwest 410 472 38,000  Level Montreal Center
Tue 01:19:18 PM 50.7333 -76.0500 198° South 400 460 38,000  Level Montreal Center
Tue 01:20:18 PM 50.6167 -76.1167 200° South 410 472 38,000  Level Montreal Center
Tue 01:21:18 PM 50.5167 -76.2000 208° Southwest 410 472 38,000  Level Montreal Center
Tue 01:22:18 PM 50.4167 -76.2833 208° Southwest 410 472 38,000  Level Montreal Center
Tue 01:23:18 PM 50.3167 -76.3667 208° Southwest 400 460 38,000  Level Montreal Center
Tue 01:24:18 PM 50.2167 -76.4333 203° Southwest 400 460 38,000  Level Montreal Center
Tue 01:25:18 PM 50.1000 -76.4833 195° South 400 460 38,000  Level Montreal Center
Tue 01:26:18 PM 50.0000 -76.5667 208° Southwest 400 460 38,000  Level Montreal Center
Tue 01:27:18 PM 49.9000 -76.6500 208° Southwest 400 460 38,000  Level Montreal Center
Tue 01:28:18 PM 49.8000 -76.7167 203° Southwest 400 460 38,000  Level Montreal Center
Tue 01:29:18 PM 49.7000 -76.8000 208° Southwest 390 449 38,000  Level Montreal Center
Tue 01:30:18 PM 49.6000 -76.8500 198° South 390 449 38,000  Level Montreal Center
Tue 01:31:18 PM 49.5000 -76.9167 203° Southwest 380 437 38,000  Level Montreal Center
Tue 01:32:18 PM 49.4000 -77.0000 208° Southwest 410 472 38,000  Level Montreal Center
Tue 01:33:18 PM 49.3000 -77.0667 204° Southwest 390 449 38,000  Level Montreal Center
Tue 01:34:18 PM 49.2000 -77.1167 198° South 380 437 38,000  Level Montreal Center
Tue 01:35:18 PM 49.1000 -77.2000 209° Southwest 400 460 38,000  Level Montreal Center
Tue 01:36:18 PM 49.0000 -77.2667 204° Southwest 390 449 38,000  Level Montreal Center
Tue 01:37:18 PM 48.9000 -77.3500 209° Southwest 390 449 38,000  Level Montreal Center
Tue 01:38:18 PM 48.8000 -77.4000 198° South 390 449 38,000  Level Montreal Center
Tue 01:39:18 PM 48.7000 -77.4667 204° Southwest 380 437 38,000  Level Montreal Center
Tue 01:40:18 PM 48.6000 -77.5500 209° Southwest 380 437 38,000  Level Montreal Center
Tue 01:41:18 PM 48.5000 -77.6167 204° Southwest 380 437 38,000  Level Montreal Center
Tue 01:42:18 PM 48.4167 -77.6667 202° Southwest 380 437 38,000  Level Montreal Center
Tue 01:43:18 PM 48.3167 -77.7333 204° Southwest 390 449 38,000  Level Montreal Center
Tue 01:44:18 PM 48.2167 -77.8000 204° Southwest 390 449 38,000  Level Montreal Center
Tue 01:45:18 PM 48.1167 -77.8500 198° South 380 437 38,000  Level Montreal Center
Tue 01:46:18 PM 48.0167 -77.9333 209° Southwest 390 449 38,000  Level Montreal Center
Tue 01:47:18 PM 47.9000 -77.9667 191° South 390 449 38,000  Level Montreal Center
Tue 01:48:18 PM 47.8000 -78.0500 209° Southwest 390 449 38,000  Level Montreal Center
Tue 01:49:18 PM 47.7000 -78.0833 193° South 390 449 38,000  Level Montreal Center
Tue 01:50:18 PM 47.6000 -78.1667 209° Southwest 390 449 38,000  Level Montreal Center
Tue 01:51:18 PM 47.5167 -78.2000 195° South 390 449 38,000  Level Montreal Center
Tue 01:52:18 PM 47.4167 -78.2667 204° Southwest 390 449 38,000  Level Montreal Center
Tue 01:53:18 PM 47.3167 -78.3167 199° South 380 437 38,000  Level Montreal Center
Tue 01:54:18 PM 47.2167 -78.3667 199° South 370 426 38,000  Level Montreal Center
Tue 01:55:18 PM 47.1000 -78.4333 201° Southwest 370 426 38,000  Level Montreal Center
Tue 01:56:18 PM 47.0167 -78.4833 202° Southwest 370 426 38,000  Level Montreal Center
Tue 01:57:18 PM 46.9167 -78.5500 204° Southwest 370 426 38,000  Level Montreal Center
Tue 01:58:00 PM 46.8667 -78.5667 193° South 370 426 38,000  Level Toronto Center
Tue 01:59:00 PM 46.7667 -78.6167 199° South 370 426 38,000  Level Toronto Center
Tue 02:00:00 PM 46.6667 -78.6667 199° South 370 426 38,000  Level Toronto Center
Tue 02:01:00 PM 46.5833 -78.7167 202° Southwest 360 414 38,000 -164 Level Toronto Center
Tue 02:07:19 PM 46.0091 -79.0423 202° Southwest 329 379 36,800 -279 Descending FlightAware ADS-B
Tue 02:07:49 PM 45.9745 -79.0611 201° Southwest 325 374 36,100 -475 Descending FlightAware ADS-B
Tue 02:09:00 PM 45.8667 -79.1000 201° Southwest 330 380 36,000 -46 Descending Toronto Center
Tue 02:10:00 PM 45.7667 -79.1500 199° South 340 391 36,000  Level Toronto Center
Tue 02:11:00 PM 45.6833 -79.2000 203° Southwest 340 391 36,000  Level Toronto Center
Tue 02:12:00 PM 45.5833 -79.2500 199° South 340 391 36,000  Level Toronto Center
Tue 02:13:00 PM 45.5000 -79.2833 196° South 340 391 36,000  Level Toronto Center
Tue 02:14:00 PM 45.4167 -79.3500 209° Southwest 340 391 36,000  Level Toronto Center
Tue 02:15:00 PM 45.3167 -79.3667 187° South 340 391 36,000  Level Toronto Center
Tue 02:16:00 PM 45.2333 -79.4167 203° Southwest 340 391 36,000  Level Toronto Center
Tue 02:17:00 PM 45.1500 -79.4667 203° Southwest 340 391 36,000  Level Toronto Center
Tue 02:18:00 PM 45.0500 -79.5167 199° South 350 403 36,000  Level Toronto Center
Tue 02:19:00 PM 44.9667 -79.5833 210° Southwest 350 403 36,000  Level Toronto Center
Tue 02:20:00 PM 44.8667 -79.6167 193° South 350 403 36,000  Level Toronto Center
Tue 02:21:00 PM 44.7833 -79.6833 210° Southwest 350 403 36,000  Level Toronto Center
Tue 02:22:00 PM 44.6833 -79.7000 187° South 350 403 36,000  Level Toronto Center
Tue 02:27:17 PM 44.2787 -80.0661 187° South 321 369 36,000  Level FlightAware ADS-B (CYKF)
Tue 02:28:06 PM 44.2174 -80.1208 213° Southwest 322 371 36,000  Level FlightAware ADS-B (CYKF)
Tue 02:28:46 PM 44.1675 -80.1653 213° Southwest 322 371 36,000  Level FlightAware ADS-B (CYKF)
Tue 02:29:40 PM 44.0994 -80.2260 213° Southwest 324 373 36,000  Level FlightAware ADS-B (CYKF)
Tue 02:30:26 PM 44.0410 -80.2778 213° Southwest 324 373 36,000  Level FlightAware ADS-B (CYKF)
Tue 02:30:57 PM 44.0061 -80.3087 212° Southwest 323 372 36,000  Level FlightAware ADS-B (CYKF)
Tue 02:31:44 PM 43.9579 -80.3512 212° Southwest 323 372 36,000  Level FlightAware ADS-B (CYKF)
Tue 02:32:22 PM 43.8976 -80.4044 212° Southwest 322 371 36,000  Level FlightAware ADS-B (CYKF)
Tue 02:33:07 PM 43.8390 -80.4560 212° Southwest 323 372 36,000  Level FlightAware ADS-B (CYKF)
Tue 02:33:46 PM 43.8087 -80.4827 212° Southwest 323 372 36,000  Level FlightAware ADS-B (CYKF)
Tue 02:34:28 PM 43.7363 -80.5461 212° Southwest 323 372 36,000  Level FlightAware ADS-B (CYKF)
Tue 02:35:05 PM 43.6902 -80.5864 212° Southwest 322 371 36,000  Level FlightAware ADS-B (CYKF)
Tue 02:35:38 PM 43.6482 -80.6230 212° Southwest 323 372 36,000  Level FlightAware ADS-B (CYKF)
Tue 02:36:26 PM 43.5873 -80.6761 212° Southwest 323 372 36,000  Level FlightAware ADS-B (CYKF)
Tue 02:36:59 PM 43.5464 -80.7116 212° Southwest 324 373 36,000  Level FlightAware ADS-B (CYKF)
Tue 02:37:46 PM 43.4867 -80.7634 212° Southwest 324 373 36,000  Level FlightAware ADS-B (CYKF)
Tue 02:38:27 PM 43.4550 -80.7908 212° Southwest 325 374 36,000  Level FlightAware ADS-B (CYKF)
Tue 02:39:23 PM 43.4550 -80.7908 212° Southwest 326 375 36,000  Level FlightAware ADS-B (CYKF)
Tue 02:40:07 PM 43.3078 -80.9178 212° Southwest 326 375 36,000  Level FlightAware ADS-B (CYKF)
Tue 02:40:47 PM 43.2555 -80.9628 212° Southwest 326 375 36,000  Level FlightAware ADS-B (CYKF)
Tue 02:41:23 PM 43.2100 -81.0018 212° Southwest 327 376 36,000  Level FlightAware ADS-B (CYKF)
Tue 02:42:07 PM 43.1560 -81.0482 212° Southwest 327 376 36,000  Level FlightAware ADS-B (CYKF)
Tue 02:42:47 PM 43.1034 -81.0931 212° Southwest 326 375 36,000  Level FlightAware ADS-B (CYKF)
Tue 02:43:27 PM 43.0560 -81.1335 212° Southwest 326 375 36,000  Level FlightAware ADS-B (CYKF)
Tue 02:44:08 PM 42.9952 -81.1750 207° Southwest 338 389 36,000  Level FlightAware ADS-B (CYKF)
Tue 02:45:03 PM 42.9174 -81.2235 205° Southwest 339 390 36,000  Level FlightAware ADS-B (CYKF)
Tue 02:46:45 PM 42.7729 -81.3126 204° Southwest 337 388 36,000  Level FlightAware ADS-B (CYKF)
Tue 02:47:27 PM 42.7115 -81.3504 204° Southwest 338 389 36,000  Level FlightAware ADS-B (CYKF)
Tue 02:47:58 PM 42.6683 -81.3769 204° Southwest 338 389 36,000  Level FlightAware ADS-B (CYKF)
Tue 02:49:00 PM 42.5795 -81.4312 204° Southwest 340 391 36,000  Level FlightAware ADS-B (CYKF)
Tue 02:49:47 PM 42.5297 -81.4615 204° Southwest 340 391 36,000  Level FlightAware ADS-B (CYKF)
Tue 02:50:46 PM 42.4345 -81.5194 204° Southwest 342 394 36,000  Level FlightAware ADS-B (CYKF)
Tue 02:51:30 PM 42.3725 -81.5572 204° Southwest 342 394 36,000  Level Cleveland Center
Tue 02:52:32 PM 42.2850 -81.6100 204° Southwest 343 395 36,000  Level Cleveland Center
Tue 02:53:34 PM 42.1969 -81.6631 204° Southwest 344 396 36,000  Level Cleveland Center
Tue 02:54:37 PM 42.1083 -81.7169 204° Southwest 346 398 36,000  Level Cleveland Center
Tue 02:55:39 PM 42.0061 -81.7783 204° Southwest 343 395 36,000  Level Cleveland Center
Tue 02:56:41 PM 41.9181 -81.8306 204° Southwest 343 395 36,000  Level Cleveland Center
Tue 02:57:43 PM 41.8300 -81.8831 204° Southwest 343 395 36,000  Level Cleveland Center
Tue 02:58:45 PM 41.7428 -81.9339 204° Southwest 341 392 36,000  Level Cleveland Center
Tue 02:59:47 PM 41.6550 -81.9872 204° Southwest 344 396 36,000  Level Cleveland Center
Tue 03:00:49 PM 41.5667 -82.0383 203° Southwest 345 397 36,000  Level Cleveland Center
Tue 03:01:51 PM 41.4650 -82.0983 204° Southwest 342 394 36,000  Level Cleveland Center
Tue 03:02:53 PM 41.3775 -82.1489 203° Southwest 342 394 36,000  Level Cleveland Center
Tue 03:03:55 PM 41.2839 -82.1872 197° South 353 406 36,000  Level Cleveland Center
Tue 03:04:57 PM 41.1889 -82.2228 196° South 354 407 36,000  Level Cleveland Center
Tue 03:05:59 PM 41.0939 -82.2561 195° South 352 405 36,000  Level Cleveland Center
Tue 03:07:01 PM 40.9994 -82.2906 195° South 351 404 36,000  Level Cleveland Center
Tue 03:08:14 PM 40.8703 -82.3356 195° South 355 409 36,000  Level Indianapolis Center
Tue 03:09:15 PM 40.7728 -82.3703 195° South 359 413 36,000  Level Indianapolis Center
Tue 03:10:17 PM 40.6758 -82.4039 195° South 358 412 36,000  Level Indianapolis Center
Tue 03:11:19 PM 40.5783 -82.4394 195° South 360 414 36,000  Level Indianapolis Center
Tue 03:12:21 PM 40.4803 -82.4739 195° South 362 417 36,000  Level Indianapolis Center
Tue 03:18:36 PM 39.8392 -82.6584 195° South 392 451 36,000  Level FlightAware ADS-B
Tue 03:19:16 PM 39.7627 -82.6623 182° South 392 451 36,000  Level FlightAware ADS-B
Tue 03:19:59 PM 39.6860 -82.6661 182° South 394 453 36,000  Level FlightAware ADS-B
Tue 03:20:40 PM 39.6106 -82.6699 182° South 395 455 36,000  Level FlightAware ADS-B
Tue 03:21:11 PM 39.5553 -82.6726 182° South 397 457 36,000  Level FlightAware ADS-B
Tue 03:21:49 PM 39.4865 -82.6759 182° South 398 458 36,000  Level FlightAware ADS-B
Tue 03:22:22 PM 39.4227 -82.6792 182° South 400 460 36,000  Level FlightAware ADS-B
Tue 03:23:03 PM 39.3490 -82.6827 182° South 403 464 36,000  Level FlightAware ADS-B
Tue 03:23:36 PM 39.2851 -82.6859 182° South 404 465 36,000  Level FlightAware ADS-B
Tue 03:24:16 PM 39.2118 -82.6894 182° South 405 466 36,000  Level FlightAware ADS-B
Tue 03:24:50 PM 39.1575 -82.6920 182° South 406 467 36,000  Level FlightAware ADS-B
Tue 03:25:29 PM 39.0746 -82.6960 182° South 407 468 36,000  Level FlightAware ADS-B
Tue 03:26:01 PM 39.0135 -82.6989 182° South 407 468 36,000  Level FlightAware ADS-B
Tue 03:26:42 PM 38.9363 -82.7027 182° South 408 470 36,000  Level FlightAware ADS-B
Tue 03:27:24 PM 38.8597 -82.7065 182° South 410 472 36,000  Level FlightAware ADS-B
Tue 03:28:04 PM 38.7904 -82.7098 182° South 411 473 36,000  Level FlightAware ADS-B
Tue 03:28:43 PM 38.7081 -82.7137 182° South 410 472 36,000  Level FlightAware ADS-B
Tue 03:29:22 PM 38.6338 -82.7173 182° South 409 471 36,000  Level FlightAware ADS-B
Tue 03:29:54 PM 38.5761 -82.7194 182° South 410 472 36,000  Level Indianapolis Center
Tue 03:30:56 PM 38.4639 -82.7239 182° South 404 465 36,000  Level Indianapolis Center
Tue 03:31:58 PM 38.3525 -82.7300 182° South 400 460 36,000  Level Indianapolis Center
Tue 03:32:59 PM 38.2406 -82.7350 182° South 400 460 36,000  Level Indianapolis Center
Tue 03:34:01 PM 38.1292 -82.7400 182° South 400 460 36,000  Level Indianapolis Center
Tue 03:35:03 PM 38.0186 -82.7481 183° South 399 459 36,000  Level Indianapolis Center
Tue 03:36:05 PM 37.8875 -82.7536 182° South 402 463 36,000  Level Indianapolis Center
Tue 03:37:07 PM 37.7764 -82.7594 182° South 399 459 36,000  Level Indianapolis Center
Tue 03:38:09 PM 37.6667 -82.7736 186° South 395 455 36,000  Level Indianapolis Center
Tue 03:39:11 PM 37.5697 -82.8214 201° Southwest 374 430 36,000  Level Indianapolis Center
Tue 03:40:12 PM 37.4800 -82.8836 209° Southwest 368 423 36,000  Level Indianapolis Center
Tue 03:41:14 PM 37.3878 -82.9433 207° Southwest 371 427 36,000  Level Indianapolis Center
Tue 03:42:16 PM 37.2786 -83.0150 208° Southwest 378 435 36,000  Level Indianapolis Center
Tue 03:43:18 PM 37.1861 -83.0761 208° Southwest 379 436 36,000  Level Indianapolis Center
Tue 03:44:20 PM 37.0936 -83.1364 207° Southwest 377 434 36,000  Level Indianapolis Center
Tue 03:45:22 PM 37.0011 -83.1961 207° Southwest 376 433 36,000  Level Indianapolis Center
Tue 03:46:24 PM 36.9083 -83.2556 207° Southwest 376 433 36,000  Level Indianapolis Center
Tue 03:47:26 PM 36.7994 -83.3258 207° Southwest 379 436 36,000  Level Indianapolis Center
Tue 03:48:28 PM 36.7061 -83.3844 207° Southwest 378 435 36,000  Level Indianapolis Center
Tue 03:49:29 PM 36.6128 -83.4450 208° Southwest 377 434 36,000  Level Indianapolis Center
Tue 03:50:31 PM 36.5200 -83.5044 207° Southwest 374 430 36,000  Level Indianapolis Center
Tue 03:51:33 PM 36.4281 -83.5636 207° Southwest 374 430 36,000  Level Indianapolis Center
Tue 03:52:35 PM 36.3350 -83.6217 207° Southwest 374 430 36,000  Level Indianapolis Center
Tue 03:53:37 PM 36.2242 -83.6931 207° Southwest 373 429 36,000  Level Indianapolis Center
Tue 03:54:39 PM 36.1300 -83.7519 207° Southwest 376 433 36,000  Level Indianapolis Center
Tue 03:55:18 PM 36.0683 -83.7922 208° Southwest 380 437 36,000  Level Atlanta Center
Tue 03:56:17 PM 35.9747 -83.8539 208° Southwest 380 437 36,000  Level Atlanta Center
Tue 03:57:17 PM 35.8767 -83.9031 202° Southwest 380 437 36,000  Level Atlanta Center
Tue 03:58:17 PM 35.7661 -83.9314 192° South 392 451 36,000  Level Atlanta Center
Tue 04:03:58 PM 35.1015 -84.0889 192° South 394 453 36,000  Level FlightAware ADS-B (KDZJ)
Tue 04:04:37 PM 35.0304 -84.1059 191° South 393 452 36,000  Level FlightAware ADS-B (KDZJ)
Tue 04:05:17 PM 34.9580 -84.1232 191° South 395 455 36,000  Level FlightAware ADS-B (KDZJ)
Tue 04:05:54 PM 34.8917 -84.1390 191° South 395 455 36,000  Level FlightAware ADS-B (KDZJ)
Tue 04:06:38 PM 34.8107 -84.1582 191° South 395 455 36,000  Level FlightAware ADS-B (KDZJ)
Tue 04:07:18 PM 34.7377 -84.1756 191° South 396 456 36,000  Level FlightAware ADS-B (KDZJ)
Tue 04:07:57 PM 34.6660 -84.1926 191° South 396 456 36,000  Level FlightAware ADS-B (KDZJ)
Tue 04:08:34 PM 34.5989 -84.2084 191° South 395 455 36,000  Level FlightAware ADS-B (KDZJ)
Tue 04:09:13 PM 34.5260 -84.2257 191° South 395 455 36,000  Level FlightAware ADS-B (KDZJ)
Tue 04:09:58 PM 34.4439 -84.2451 191° South 397 457 36,000  Level FlightAware ADS-B (KDZJ)
Tue 04:10:37 PM 34.3726 -84.2618 191° South 396 456 36,000  Level FlightAware ADS-B (KDZJ)
Tue 04:11:19 PM 34.2967 -84.2796 191° South 396 456 36,000  Level FlightAware ADS-B (KDZJ)
Tue 04:11:58 PM 34.2236 -84.2968 191° South 397 457 36,000  Level FlightAware ADS-B (KDZJ)
Tue 04:12:39 PM 34.1483 -84.3145 191° South 398 458 36,000  Level FlightAware ADS-B (KDZJ)
Tue 04:13:19 PM 34.0747 -84.3316 191° South 406 467 36,000  Level FlightAware ADS-B (KDZJ)
Tue 04:13:59 PM 34.0023 -84.3485 191° South 398 458 36,000  Level FlightAware ADS-B (KDZJ)
Tue 04:15:18 PM 33.9169 -84.3717 191° South 413 475 36,000 87 Level Atlanta Center
Tue 04:16:17 PM 33.8042 -84.3964 190° South 407 468 36,200 504 Climbing Atlanta Center
Tue 04:17:17 PM 33.6956 -84.4233 192° South 414 476 37,000 400 Climbing Atlanta Center
Tue 04:18:17 PM 33.5681 -84.4378 185° South 408 470 37,000  Level Atlanta Center
Tue 04:19:18 PM 33.4533 -84.4347 179° South 413 475 37,000  Level Atlanta Center
Tue 04:20:17 PM 33.3364 -84.4342 180° South 413 475 37,000  Level Atlanta Center
Tue 04:21:17 PM 33.2197 -84.4311 179° South 418 481 37,000  Level Atlanta Center
Tue 04:22:18 PM 33.1153 -84.4308 180° South 418 481 37,000  Level Atlanta Center
Tue 04:23:17 PM 32.9983 -84.4278 179° South 418 481 37,000  Level Atlanta Center
Tue 04:24:17 PM 32.8814 -84.4247 179° South 423 487 37,000  Level Atlanta Center
Tue 04:25:18 PM 32.7667 -84.4217 179° South 423 487 37,000  Level Atlanta Center
Tue 04:26:17 PM 32.6497 -84.4186 179° South 423 487 37,000  Level Atlanta Center
Tue 04:27:18 PM 32.5331 -84.4158 179° South 423 487 37,000  Level Atlanta Center
Tue 04:29:11 PM 32.2953 -84.4089 179° South 423 487 37,000  Level Jacksonville Center
Tue 04:30:11 PM 32.1847 -84.4072 179° South 429 494 37,000  Level Jacksonville Center
Tue 04:31:11 PM 32.0678 -84.4053 179° South 429 494 37,000  Level Jacksonville Center
Tue 04:32:11 PM 31.9467 -84.4033 179° South 434 499 37,000  Level Jacksonville Center
Tue 04:33:11 PM 31.8278 -84.3989 178° South 434 499 37,000  Level Jacksonville Center
Tue 04:34:11 PM 31.7067 -84.3969 179° South 434 499 37,000  Level Jacksonville Center
Tue 04:35:11 PM 31.5878 -84.3950 179° South 439 505 37,000  Level Jacksonville Center
Tue 04:40:39 PM 30.9313 -84.2151 179° South 457 526 37,000  Level FlightAware ADS-B (KONZ)
Tue 04:41:44 PM 30.8339 -84.1631 155° Southeast 458 527 37,000  Level FlightAware ADS-B (KONZ)
Tue 04:42:21 PM 30.7417 -84.1139 155° Southeast 459 528 37,000  Level FlightAware ADS-B (KONZ)
Tue 04:43:05 PM 30.6502 -84.0651 155° Southeast 459 528 37,000  Level FlightAware ADS-B (KONZ)
Tue 04:43:46 PM 30.5709 -84.0230 155° Southeast 460 529 37,000  Level FlightAware ADS-B (KONZ)
Tue 04:44:25 PM 30.4953 -83.9828 155° Southeast 461 531 37,000  Level FlightAware ADS-B (KONZ)
Tue 04:44:59 PM 30.4285 -83.9475 155° Southeast 463 533 37,000  Level FlightAware ADS-B (KONZ)
Tue 04:45:46 PM 30.3382 -83.8997 155° Southeast 463 533 37,000  Level FlightAware ADS-B (KONZ)
Tue 04:46:27 PM 30.2590 -83.8579 155° Southeast 464 534 37,000  Level FlightAware ADS-B (KONZ)
Tue 04:47:05 PM 30.1827 -83.8177 156° South 465 535 37,000  Level FlightAware ADS-B (KONZ)
Tue 04:47:11 PM 30.1723 -83.8122 156° South 465 535 37,000  Level FlightAware ADS-B
Tue 04:47:46 PM 30.1023 -83.7754 156° South 467 537 37,000  Level FlightAware ADS-B (KONZ)
Tue 04:48:18 PM 30.0742 -83.7606 156° South 466 536 37,000  Level FlightAware ADS-B (KONZ)
Tue 04:49:07 PM 29.9849 -83.7138 156° South 466 536 37,000  Level FlightAware ADS-B (KONZ)
Tue 04:50:11 PM 29.8217 -83.6300 156° South 458 527 37,000  Level Jacksonville Center
Tue 04:51:11 PM 29.7053 -83.5692 156° South 458 527 37,000  Level Jacksonville Center
Tue 04:52:11 PM 29.5969 -83.5136 156° South 458 527 37,000  Level Jacksonville Center
Tue 04:53:11 PM 29.4825 -83.4533 155° Southeast 464 534 37,000  Level Jacksonville Center
Tue 04:54:11 PM 29.3636 -83.3931 156° South 459 528 37,000  Level Jacksonville Center
Tue 04:55:11 PM 29.2469 -83.3328 156° South 459 528 37,000  Level Jacksonville Center
Tue 05:01:06 PM 28.5602 -82.9785 156° South 458 527 37,000  Level FlightAware ADS-B
Tue 05:01:41 PM 28.4776 -82.9365 156° South 457 526 37,000  Level FlightAware ADS-B
Tue 05:02:19 PM 28.4125 -82.9035 156° South 457 526 37,000  Level FlightAware ADS-B
Tue 05:03:08 PM 28.3084 -82.8509 156° South 458 527 37,000  Level FlightAware ADS-B
Tue 05:03:50 PM 28.2439 -82.8183 156° South 459 528 37,000  Level FlightAware ADS-B
Tue 05:04:56 PM 28.0988 -82.7451 156° South 460 529 37,000  Level FlightAware ADS-B
Tue 05:06:09 PM 27.9565 -82.6736 156° South 462 532 37,000  Level FlightAware ADS-B
Tue 05:06:50 PM 27.8778 -82.6341 156° South 461 531 37,000  Level FlightAware ADS-B
Tue 05:07:26 PM 27.8066 -82.5984 156° South 461 531 37,000  Level FlightAware ADS-B
Tue 05:08:06 PM 27.7414 -82.5658 156° South 459 528 37,000  Level FlightAware ADS-B
Tue 05:08:43 PM 27.6573 -82.5238 156° South 458 527 37,000  Level FlightAware ADS-B
Tue 05:09:25 PM 27.5745 -82.4826 156° South 459 528 37,000  Level FlightAware ADS-B
Tue 05:10:07 PM 27.5142 -82.4526 156° South 461 531 37,000  Level FlightAware ADS-B
Tue 05:10:39 PM 27.4329 -82.4121 156° South 463 533 37,000  Level FlightAware ADS-B
Tue 05:11:09 PM 27.3723 -82.3820 156° South 464 534 37,000  Level FlightAware ADS-B
Tue 05:11:50 PM 27.2905 -82.3414 156° South 465 535 37,000  Level FlightAware ADS-B
Tue 05:16:31 PM 26.7398 -82.0703 156° South 465 535 37,000  Level FlightAware ADS-B
Tue 05:17:11 PM 26.6599 -82.0311 156° South 466 536 37,000  Level FlightAware ADS-B
Tue 05:17:49 PM 26.5919 -81.9979 156° South 468 539 37,000  Level FlightAware ADS-B
Tue 05:18:30 PM 26.5008 -81.9534 156° South 468 539 37,000  Level FlightAware ADS-B
Tue 05:19:12 PM 26.4244 -81.9162 156° South 468 539 37,000  Level FlightAware ADS-B
Tue 05:19:51 PM 26.3396 -81.8749 156° South 468 539 37,000  Level FlightAware ADS-B
Tue 05:20:27 PM 26.2686 -81.8404 156° South 468 539 37,000  Level FlightAware ADS-B
Tue 05:21:11 PM 26.1887 -81.8017 156° South 470 541 37,000  Level FlightAware ADS-B
Tue 05:21:52 PM 26.0983 -81.7579 157° South 472 543 37,000  Level FlightAware ADS-B
Tue 05:22:52 PM 25.9784 -81.6999 157° South 473 544 37,000  Level FlightAware ADS-B
Tue 05:25:26 PM 25.6882 -81.5602 157° South 474 545 37,000  Level FlightAware ADS-B
Tue 05:26:33 PM 25.5340 -81.4862 157° South 475 547 37,000 -87 Level FlightAware ADS-B
Tue 05:27:44 PM 25.3994 -81.4244 157° South 473 544 36,800 -550 Descending Miami Center
Tue 05:28:44 PM 25.2758 -81.3647 156° South 473 544 35,800 -1,000 Descending Miami Center
Tue 05:29:44 PM 25.1544 -81.3075 157° South 473 544 34,800 -1,000 Descending Miami Center
Tue 05:30:44 PM 25.0350 -81.2503 157° South 473 544 33,800 -1,000 Descending Miami Center
Tue 05:31:44 PM 24.9175 -81.1933 156° South 473 544 32,800 -1,300 Descending Miami Center
Tue 05:32:44 PM 24.7981 -81.1436 159° South 468 539 31,200 -1,800 Descending Miami Center
Tue 05:33:44 PM 24.6797 -81.1167 168° South 452 520 29,200 -1,950 Descending Miami Center
Tue 05:34:44 PM 24.5606 -81.1194 181° South 436 502 27,300 -1,800 Descending Miami Center
Tue 05:35:44 PM 24.4514 -81.1361 188° South 413 475 25,600 -1,200 Descending Miami Center
Tue 05:36:44 PM 24.3444 -81.1553 189° South 402 463 24,900 -300 Descending Miami Center
Tue 05:37:44 PM 24.2372 -81.1722 188° South 397 457 25,000 50 Climbing Miami Center
Tue 05:38:44 PM 24.1322 -81.1958 192° South 391 450 25,000 -50 Level Miami Center
Tue 05:39:44 PM 24.0267 -81.2308 197° South 391 450 24,900 -1,350 Descending Miami Center
Tue 05:40:44 PM 23.9331 -81.2911 210° Southwest 390 449 22,300 -2,600 Descending Miami Center
Tue 05:42:00 PM 23.8271 -81.4086 225° Southwest  Level FlightAware Approximate
Tue 05:49:00 PM 23.2601 -82.0742 226° Southwest  Level FlightAware Approximate
Tue 05:50:00 PM 23.1780 -82.1680 226° Southwest  Level FlightAware Approximate
Tue 05:51:00 PM 23.0905 -82.2523 241° Southwest  Level FlightAware Approximate
Tue 05:52:00 PM 23.0150 -82.3516 223° Southwest  Level FlightAware Approximate
Tue 05:53:00 PM 22.9667 -82.4000 223° Southwest  Level FlightAware Approximate
Tue 05:54:00 PM 22.9891 -82.4091 223° Southwest  Level Estimated
Tue 05:55:00 PM 22.9891 -82.4091 223° Southwest  Level Estimated
Tue 05:56:00 PM 22.9891 -82.4091 223° Southwest  Level Estimated
Tue 05:57:00 PM 22.9891 -82.4091 223° Southwest  Level Estimated
Tue 05:58:00 PM 22.9891 -82.4091 223° Southwest  Level Estimated
Tue 05:59:00 PM 22.9891 -82.4091 223° Southwest  Level Estimated
Tue 06:00:00 PM 22.9891 -82.4091 223° Southwest  Level Estimated
Tue 06:01:00 PM 22.9891 -82.4091 223° Southwest  Level Estimated
Tue 06:02:00 PM 22.9891 -82.4091 223° Southwest  Level Estimated
Tue 06:03:00 PM 22.9891 -82.4091 223° Southwest  Level Estimated
Tue 06:04:00 PM 22.9891 -82.4091 223° Southwest  Level Estimated
Tue 06:05:00 PM 22.9891 -82.4091 223° Southwest  Level Estimated
Tue 06:06:00 PM 22.9891 -82.4091 223° Southwest  Level Estimated
Tue 06:07:00 PM 22.9891 -82.4091 223° Southwest  Level Estimated
Tue 06:08:00 PM 22.9891 -82.4091 223° Southwest  Level Estimated
Tue 06:09:00 PM 22.9891 -82.4091 223° Southwest  Level Estimated
Tue 06:10:00 PM 22.9891 -82.4091 223° Southwest  Level Estimated
Tue 06:11:00 PM 22.9891 -82.4091 223° Southwest  Level Estimated
Tue 06:12:00 PM 22.9891 -82.4091 223° Southwest  Level Estimated
Tue 06:13:00 PM 22.9891 -82.4091 223° Southwest  Level Estimated
Tue 06:14:00 PM 22.9891 -82.4091 223° Southwest  Level Estimated

Login

Don't have an account? Register now (free) for customized features, flight alerts, and more!